Time;durP1;ratioP1;P1;durP2;ratioP2;P2;SDS_P1;SDS_P2;PMS_P1;PMS_P2;Temp;Humidity;BMP_temperature;BMP_pressure;BME280_temperature;BME280_humidity;BME280_pressure;Samples;Min_cycle;Max_cycle;Signal;HPM_P1;HPM_P2
2023/03/16 00:01:05;;;;;;;;;;;;;;;4.06;68.01;100601.14;107509;1260;112897;-61
2023/03/16 00:03:35;;;;;;;;;;;;;;;4.05;68.11;100594.81;107532;1254;109621;-61
2023/03/16 00:06:03;;;;;;;;;;;;;;;4.06;68.04;100599.72;107537;1259;108728;-60
2023/03/16 00:08:31;;;;;;;;;;;;;;;4.02;68.37;100601.92;107538;1254;99714;-60
2023/03/16 00:11:01;;;;;;;;;;;;;;;3.97;68.47;100596.77;107526;1258;99262;-61
2023/03/16 00:13:31;;;;;;;;;;;;;;;3.99;68.21;100599.83;107538;1254;113175;-61
2023/03/16 00:16:03;;;;;;;;;;;;;;;4.04;68.23;100604.43;107494;1254;109650;-61
2023/03/16 00:18:37;;;;;;;;;;;;;;;4.05;68.15;100604.04;107534;1254;108833;-61
2023/03/16 00:21:06;;;;;;;;;;;;;;;4.03;67.99;100610.06;107503;1254;99197;-62
2023/03/16 00:23:34;;;;;;;;;;;;;;;4.02;68.36;100624.64;107533;1260;99256;-61
2023/03/16 00:26:04;;;;;;;;;;;;;;;4.00;68.26;100621.73;107552;1257;113063;-61
2023/03/16 00:28:34;;;;;;;;;;;;;;;3.95;68.40;100625.11;107572;1254;109812;-61
2023/03/16 00:31:03;;;;;;;;;;;;;;;3.87;68.78;100628.03;107322;1260;108344;-60
2023/03/16 00:33:34;;;;;;;;;;;;;;;3.84;68.86;100632.72;107517;1254;99543;-60
2023/03/16 00:36:08;;;;;;;;;;;;;;;3.82;68.75;100637.98;107549;1254;99164;-61
2023/03/16 00:38:38;;;;;;;;;;;;;;;3.79;69.20;100642.05;107357;1254;112277;-61
2023/03/16 00:41:08;;;;;;;;;;;;;;;3.75;69.15;100640.51;107540;1254;109493;-60
2023/03/16 00:43:43;;;;;;;;;;;;;;;3.71;69.35;100642.34;107371;1254;107813;-61
2023/03/16 00:46:14;;;;;;;;;;;;;;;3.68;69.86;100645.36;107354;1259;99216;-60
2023/03/16 00:48:45;;;;;;;;;;;;;;;3.64;69.92;100645.79;107543;1254;99247;-62
2023/03/16 00:51:16;;;;;;;;;;;;;;;3.61;70.04;100647.23;107566;1254;113280;-61
2023/03/16 00:53:45;;;;;;;;;;;;;;;3.58;70.28;100646.48;107549;1254;109175;-60
2023/03/16 00:56:14;;;;;;;;;;;;;;;3.56;70.38;100644.12;107485;1254;107837;-60
2023/03/16 00:58:42;;;;;;;;;;;;;;;3.55;70.47;100637.27;107501;1257;99204;-61
2023/03/16 01:01:13;;;;;;;;;;;;;;;3.56;70.37;100643.29;107536;1254;99176;-62
2023/03/16 01:03:42;;;;;;;;;;;;;;;3.56;70.61;100644.48;107361;1254;113626;-62
2023/03/16 01:06:12;;;;;;;;;;;;;;;3.57;70.31;100646.73;107477;1257;109025;-60
2023/03/16 01:08:42;;;;;;;;;;;;;;;3.58;70.55;100653.63;107471;1254;107749;-62
2023/03/16 01:11:15;;;;;;;;;;;;;;;3.59;70.48;100657.80;107344;1254;99205;-60
2023/03/16 01:13:45;;;;;;;;;;;;;;;3.61;70.47;100659.48;107482;1257;99095;-62
2023/03/16 01:16:14;;;;;;;;;;;;;;;3.57;70.78;100668.55;107482;1254;113317;-60
2023/03/16 01:18:43;;;;;;;;;;;;;;;3.53;70.59;100667.44;107522;1254;110119;-62
2023/03/16 01:21:15;;;;;;;;;;;;;;;3.53;70.84;100667.56;107513;1257;108825;-60
2023/03/16 01:23:43;;;;;;;;;;;;;;;3.51;71.20;100666.83;107486;1254;99736;-60
2023/03/16 01:26:15;;;;;;;;;;;;;;;3.47;71.37;100661.94;107507;1257;99260;-60
2023/03/16 01:28:44;;;;;;;;;;;;;;;3.40;71.59;100667.45;107373;1254;112674;-61
2023/03/16 01:31:15;;;;;;;;;;;;;;;3.38;71.78;100668.32;107513;1257;108975;-60
2023/03/16 01:33:44;;;;;;;;;;;;;;;3.35;71.95;100671.67;107498;1254;106685;-61
2023/03/16 01:36:17;;;;;;;;;;;;;;;3.34;71.90;100672.10;107361;1254;99221;-61
2023/03/16 01:38:51;;;;;;;;;;;;;;;3.37;71.75;100663.23;107522;1254;99064;-60
2023/03/16 01:41:20;;;;;;;;;;;;;;;3.39;71.76;100665.04;107554;1254;112830;-61
2023/03/16 01:43:50;;;;;;;;;;;;;;;3.37;71.95;100665.02;107439;1254;108573;-61
2023/03/16 01:46:21;;;;;;;;;;;;;;;3.35;71.97;100664.58;107341;1254;108812;-60
2023/03/16 01:48:58;;;;;;;;;;;;;;;3.34;71.81;100666.56;107328;1254;99343;-61
2023/03/16 01:51:43;;;;;;;;;;;;;;;3.37;71.59;100666.02;107486;1254;99159;-61
2023/03/16 01:54:14;;;;;;;;;;;;;;;3.40;71.78;100672.61;107444;1254;114266;-61
2023/03/16 01:56:49;;;;;;;;;;;;;;;3.38;71.82;100673.25;107456;1254;111147;-61
2023/03/16 01:59:20;;;;;;;;;;;;;;;3.38;71.81;100669.73;107441;1254;107666;-61
2023/03/16 02:01:50;;;;;;;;;;;;;;;3.36;71.77;100674.41;107337;1254;99093;-62
2023/03/16 02:04:34;;;;;;;;;;;;;;;3.43;71.29;100678.09;107387;1254;99118;-61
2023/03/16 02:07:04;;;;;;;;;;;;;;;3.53;71.04;100685.31;107546;1254;112870;-61
2023/03/16 02:09:34;;;;;;;;;;;;;;;3.57;71.07;100686.98;107460;1254;109004;-59
2023/03/16 02:12:03;;;;;;;;;;;;;;;3.56;71.04;100688.34;107481;1257;107491;-61
2023/03/16 02:14:33;;;;;;;;;;;;;;;3.53;71.07;100687.77;107451;1254;99204;-61
2023/03/16 02:17:01;;;;;;;;;;;;;;;3.56;70.89;100697.69;107510;1257;99047;-60
2023/03/16 02:19:41;;;;;;;;;;;;;;;3.56;70.77;100701.09;107503;1254;113639;-61
2023/03/16 02:22:09;;;;;;;;;;;;;;;3.59;70.70;100698.39;107493;1257;108724;-63
2023/03/16 02:24:37;;;;;;;;;;;;;;;3.58;70.86;100694.41;107341;1254;108584;-61
2023/03/16 02:27:16;;;;;;;;;;;;;;;3.55;70.78;100686.98;107501;1254;99061;-61
2023/03/16 02:30:03;;;;;;;;;;;;;;;3.57;70.64;100679.21;107501;1254;99152;-64
2023/03/16 02:32:37;;;;;;;;;;;;;;;3.60;70.98;100685.41;107533;1254;114031;-60
2023/03/16 02:35:06;;;;;;;;;;;;;;;3.55;70.99;100692.64;107540;1254;109667;-61
2023/03/16 02:37:34;;;;;;;;;;;;;;;3.49;71.22;100699.92;107371;1254;108808;-62
2023/03/16 02:40:16;;;;;;;;;;;;;;;3.42;71.32;100702.93;107451;1254;99188;-61
2023/03/16 02:42:53;;;;;;;;;;;;;;;3.40;71.48;100695.31;107379;1254;99069;-61
2023/03/16 02:45:25;;;;;;;;;;;;;;;3.37;71.73;100700.27;107407;1254;111281;-61
2023/03/16 02:47:54;;;;;;;;;;;;;;;3.34;71.86;100707.03;107486;1254;108697;-60
2023/03/16 02:50:22;;;;;;;;;;;;;;;3.29;72.00;100703.54;107481;1254;107738;-61
2023/03/16 02:52:50;;;;;;;;;;;;;;;3.28;72.14;100700.59;107458;1254;99173;-62
2023/03/16 02:55:20;;;;;;;;;;;;;;;3.25;72.32;100697.40;107517;1254;98956;-61
2023/03/16 02:57:48;;;;;;;;;;;;;;;3.24;72.34;100699.45;107468;1254;113393;-61
2023/03/16 03:00:18;;;;;;;;;;;;;;;3.22;72.45;100700.40;107517;1257;109928;-60
2023/03/16 03:02:48;;;;;;;;;;;;;;;3.21;72.67;100703.66;107519;1254;107638;-61
2023/03/16 03:05:17;;;;;;;;;;;;;;;3.22;72.55;100703.80;107481;1254;99172;-62
2023/03/16 03:07:45;;;;;;;;;;;;;;;3.23;72.48;100708.20;107380;1254;99159;-62
2023/03/16 03:10:14;;;;;;;;;;;;;;;3.21;72.61;100710.06;107475;1254;112889;-60
2023/03/16 03:12:42;;;;;;;;;;;;;;;3.20;72.63;100715.27;107522;1254;110014;-61
2023/03/16 03:15:11;;;;;;;;;;;;;;;3.18;72.74;100719.30;107500;1254;108387;-61
2023/03/16 03:17:48;;;;;;;;;;;;;;;3.17;72.72;100718.30;107503;1254;99242;-61
2023/03/16 03:20:18;;;;;;;;;;;;;;;3.17;72.53;100716.67;107532;1254;99195;-60
2023/03/16 03:22:48;;;;;;;;;;;;;;;3.20;72.41;100714.92;107417;1253;112182;-60
2023/03/16 03:25:17;;;;;;;;;;;;;;;3.23;72.42;100706.91;107388;1253;109555;-60
2023/03/16 03:27:46;;;;;;;;;;;;;;;3.26;72.17;100709.92;107496;1254;107600;-62
2023/03/16 03:30:17;;;;;;;;;;;;;;;3.25;72.24;100704.69;107479;1254;99179;-61
2023/03/16 03:32:47;;;;;;;;;;;;;;;3.26;71.96;100695.80;107495;1254;99183;-61
2023/03/16 03:35:18;;;;;;;;;;;;;;;3.28;71.91;100692.27;107487;1254;111579;-61
2023/03/16 03:37:47;;;;;;;;;;;;;;;3.30;71.82;100691.27;107378;1254;108854;-61
2023/03/16 03:40:17;;;;;;;;;;;;;;;3.31;71.84;100691.77;107479;1254;108293;-61
2023/03/16 03:42:47;;;;;;;;;;;;;;;3.32;71.59;100685.50;107387;1254;99316;-62
2023/03/16 03:45:17;;;;;;;;;;;;;;;3.33;71.59;100684.54;107505;1254;99250;-62
2023/03/16 03:47:45;;;;;;;;;;;;;;;3.31;71.64;100681.12;107486;1254;112061;-61
2023/03/16 03:50:18;;;;;;;;;;;;;;;3.32;71.50;100683.54;107471;1254;111135;-62
2023/03/16 03:52:55;;;;;;;;;;;;;;;3.33;71.41;100686.34;107450;1254;108090;-61
2023/03/16 03:55:23;;;;;;;;;;;;;;;3.36;71.34;100693.59;107460;1257;99814;-60
2023/03/16 03:57:51;;;;;;;;;;;;;;;3.33;71.49;100698.92;107485;1254;99275;-60
2023/03/16 04:00:20;;;;;;;;;;;;;;;3.30;71.31;100707.03;107481;1253;114097;-62
2023/03/16 04:02:50;;;;;;;;;;;;;;;3.28;71.53;100707.32;107386;1254;108930;-60
2023/03/16 04:05:30;;;;;;;;;;;;;;;3.27;71.42;100703.13;107455;1254;108430;-61
2023/03/16 04:07:59;;;;;;;;;;;;;;;3.31;71.41;100710.38;107519;1254;99626;-62
2023/03/16 04:10:28;;;;;;;;;;;;;;;3.36;71.04;100716.09;107410;1254;99102;-61
2023/03/16 04:12:58;;;;;;;;;;;;;;;3.38;71.04;100718.31;107387;1254;112309;-61
2023/03/16 04:15:27;;;;;;;;;;;;;;;3.34;71.25;100716.77;107459;1254;110169;-62
2023/03/16 04:18:19;;;;;;;;;;;;;;;3.30;71.18;100717.85;107393;1254;107469;-61
2023/03/16 04:20:47;;;;;;;;;;;;;;;3.30;71.20;100718.73;107508;1254;99238;-61
2023/03/16 04:23:19;;;;;;;;;;;;;;;3.37;71.01;100724.54;107531;1254;99282;-61
2023/03/16 04:25:48;;;;;;;;;;;;;;;3.42;70.80;100727.10;107490;1254;112495;-60
2023/03/16 04:28:17;;;;;;;;;;;;;;;3.49;70.76;100724.05;107495;1254;110157;-61
2023/03/16 04:30:47;;;;;;;;;;;;;;;3.48;70.74;100723.05;107488;1257;106828;-61
2023/03/16 04:33:20;;;;;;;;;;;;;;;3.47;70.71;100720.23;107454;1254;99184;-62
2023/03/16 04:35:48;;;;;;;;;;;;;;;3.51;70.62;100724.45;107358;1254;99365;-61
2023/03/16 04:38:17;;;;;;;;;;;;;;;3.54;70.51;100732.95;107507;1254;110816;-62
2023/03/16 04:40:55;;;;;;;;;;;;;;;3.55;70.58;100736.09;107498;1254;109922;-62
2023/03/16 04:43:26;;;;;;;;;;;;;;;3.54;70.48;100736.13;107479;1254;107230;-61
2023/03/16 04:46:02;;;;;;;;;;;;;;;3.53;70.47;100740.98;107497;1257;99051;-61
2023/03/16 04:48:33;;;;;;;;;;;;;;;3.50;70.68;100741.52;107415;1254;99185;-61
2023/03/16 04:51:04;;;;;;;;;;;;;;;3.49;70.68;100750.26;107473;1254;113543;-61
2023/03/16 04:53:35;;;;;;;;;;;;;;;3.44;71.18;100758.90;107412;1254;110088;-61
2023/03/16 04:56:18;;;;;;;;;;;;;;;3.42;70.74;100756.67;107382;1259;106951;-61
2023/03/16 04:58:50;;;;;;;;;;;;;;;3.42;71.34;100758.98;107465;1257;99154;-61
2023/03/16 05:01:19;;;;;;;;;;;;;;;3.39;70.96;100748.14;107519;1254;99289;-61
2023/03/16 05:03:49;;;;;;;;;;;;;;;3.43;71.11;100750.96;107470;1254;113396;-61
2023/03/16 05:06:18;;;;;;;;;;;;;;;3.45;71.26;100748.87;107410;1254;110184;-62
2023/03/16 05:08:46;;;;;;;;;;;;;;;3.47;71.07;100750.39;107458;1254;108302;-61
2023/03/16 05:11:14;;;;;;;;;;;;;;;3.47;71.13;100754.48;107468;1257;99210;-62
2023/03/16 05:13:51;;;;;;;;;;;;;;;3.48;71.13;100753.52;107407;1254;99304;-60
2023/03/16 05:16:20;;;;;;;;;;;;;;;3.44;71.21;100753.39;107490;1254;113696;-60
2023/03/16 05:18:48;;;;;;;;;;;;;;;3.43;71.27;100758.73;107456;1254;109846;-61
2023/03/16 05:21:17;;;;;;;;;;;;;;;3.44;71.36;100767.18;107390;1254;107030;-61
2023/03/16 05:23:59;;;;;;;;;;;;;;;3.40;71.40;100767.24;107393;1254;98483;-62
2023/03/16 05:26:27;;;;;;;;;;;;;;;3.39;71.55;100766.83;107482;1257;99063;-60
2023/03/16 05:28:57;;;;;;;;;;;;;;;3.44;71.52;100772.70;107460;1254;112756;-61
2023/03/16 05:31:27;;;;;;;;;;;;;;;3.41;71.80;100784.56;107458;1254;109678;-61
2023/03/16 05:33:58;;;;;;;;;;;;;;;3.36;71.86;100790.02;107506;1253;107790;-61
2023/03/16 05:36:26;;;;;;;;;;;;;;;3.31;72.20;100788.89;107368;1254;99799;-61
2023/03/16 05:38:58;;;;;;;;;;;;;;;3.28;72.44;100787.98;107476;1254;99178;-60
2023/03/16 05:41:33;;;;;;;;;;;;;;;3.30;72.39;100785.20;107451;1254;112822;-62
2023/03/16 05:44:07;;;;;;;;;;;;;;;3.33;72.27;100786.86;107482;1254;110006;-62
2023/03/16 05:46:51;;;;;;;;;;;;;;;3.35;72.26;100796.66;107402;1259;108147;-61
2023/03/16 05:49:19;;;;;;;;;;;;;;;3.33;72.23;100801.70;107395;1259;99122;-61
2023/03/16 05:51:49;;;;;;;;;;;;;;;3.30;72.57;100808.95;107415;1254;99275;-62
2023/03/16 05:54:17;;;;;;;;;;;;;;;3.30;72.36;100812.67;107386;1254;112960;-61
2023/03/16 05:56:46;;;;;;;;;;;;;;;3.30;72.63;100820.48;107521;1254;109910;-61
2023/03/16 05:59:16;;;;;;;;;;;;;;;3.30;72.36;100824.95;107449;1255;107570;-61
2023/03/16 06:01:49;;;;;;;;;;;;;;;3.35;72.25;100822.67;107393;1254;99202;-61
2023/03/16 06:04:20;;;;;;;;;;;;;;;3.42;72.18;100831.17;107501;1254;99062;-60
2023/03/16 06:06:49;;;;;;;;;;;;;;;3.42;72.27;100836.27;107488;1254;112633;-61
2023/03/16 06:09:21;;;;;;;;;;;;;;;3.46;71.76;100842.13;107472;1254;109674;-62
2023/03/16 06:11:50;;;;;;;;;;;;;;;3.50;71.98;100845.98;107422;1254;108119;-62
2023/03/16 06:14:18;;;;;;;;;;;;;;;3.55;71.76;100847.98;107446;1254;99281;-61
2023/03/16 06:16:47;;;;;;;;;;;;;;;3.58;71.84;100853.31;107479;1254;99185;-60
2023/03/16 06:19:16;;;;;;;;;;;;;;;3.61;71.92;100855.30;107424;1254;111518;-63
2023/03/16 06:21:45;;;;;;;;;;;;;;;3.65;71.76;100855.35;107471;1253;109005;-61
2023/03/16 06:24:13;;;;;;;;;;;;;;;3.74;71.63;100862.28;107374;1259;108194;-61
2023/03/16 06:26:42;;;;;;;;;;;;;;;3.75;71.29;100862.41;107436;1254;99058;-60
2023/03/16 06:29:11;;;;;;;;;;;;;;;3.76;71.15;100870.34;107453;1254;99301;-61
2023/03/16 06:31:40;;;;;;;;;;;;;;;3.72;71.12;100875.86;107455;1253;113455;-60
2023/03/16 06:34:10;;;;;;;;;;;;;;;3.69;71.03;100882.80;107479;1254;110150;-61
2023/03/16 06:36:39;;;;;;;;;;;;;;;3.74;71.15;100885.73;107424;1254;108705;-62
2023/03/16 06:39:10;;;;;;;;;;;;;;;3.79;70.95;100887.23;107446;1254;99279;-61
2023/03/16 06:41:41;;;;;;;;;;;;;;;3.86;70.99;100889.81;107462;1253;99224;-61
2023/03/16 06:44:11;;;;;;;;;;;;;;;3.95;70.92;100892.31;107418;1254;113513;-61
2023/03/16 06:46:47;;;;;;;;;;;;;;;4.03;70.58;100896.84;107473;1254;107959;-60
2023/03/16 06:49:16;;;;;;;;;;;;;;;4.09;70.17;100899.67;107434;1254;108056;-61
2023/03/16 06:51:44;;;;;;;;;;;;;;;4.10;69.73;100905.10;107366;1253;99376;-59
2023/03/16 06:54:13;;;;;;;;;;;;;;;4.06;69.75;100907.44;107483;1253;99186;-61
2023/03/16 06:56:41;;;;;;;;;;;;;;;4.04;69.63;100912.91;107384;1254;114240;-61
2023/03/16 06:59:09;;;;;;;;;;;;;;;3.96;69.78;100914.41;107449;1257;109377;-62
2023/03/16 07:01:38;;;;;;;;;;;;;;;3.90;69.77;100915.98;107414;1254;107617;-64
2023/03/16 07:04:07;;;;;;;;;;;;;;;3.85;69.95;100923.95;107364;1254;99211;-63
2023/03/16 07:06:35;;;;;;;;;;;;;;;3.84;69.90;100928.08;107380;1254;99205;-63
2023/03/16 07:09:04;;;;;;;;;;;;;;;3.93;69.98;100933.05;107441;1254;112781;-61
2023/03/16 07:11:32;;;;;;;;;;;;;;;4.00;69.88;100929.09;107484;1254;109391;-62
2023/03/16 07:14:01;;;;;;;;;;;;;;;4.15;70.02;100928.41;107107;1262;108173;-61
2023/03/16 07:16:31;;;;;;;;;;;;;;;4.26;69.64;100923.88;107395;1256;99263;-62
2023/03/16 07:19:01;;;;;;;;;;;;;;;4.30;68.93;100930.90;107439;1259;99272;-61
2023/03/16 07:21:38;;;;;;;;;;;;;;;4.25;68.76;100937.39;107409;1254;113212;-62
2023/03/16 07:24:09;;;;;;;;;;;;;;;4.15;68.74;100937.65;107432;1254;109411;-61
2023/03/16 07:26:37;;;;;;;;;;;;;;;4.19;68.94;100938.67;107462;1254;108637;-61
2023/03/16 07:29:06;;;;;;;;;;;;;;;4.30;69.13;100935.89;107396;1254;99260;-61
2023/03/16 07:31:35;;;;;;;;;;;;;;;4.37;69.08;100934.95;107486;1254;99357;-62
2023/03/16 07:34:07;;;;;;;;;;;;;;;4.42;68.63;100940.81;107462;1254;113266;-62
2023/03/16 07:36:42;;;;;;;;;;;;;;;4.50;68.56;100944.98;107439;1254;109773;-60
2023/03/16 07:39:13;;;;;;;;;;;;;;;4.59;68.70;100949.97;107442;1257;108435;-61
2023/03/16 07:41:43;;;;;;;;;;;;;;;4.59;67.60;100950.69;107427;1254;99185;-62
2023/03/16 07:44:16;;;;;;;;;;;;;;;4.56;67.69;100952.81;107443;1254;99164;-62
2023/03/16 07:46:48;;;;;;;;;;;;;;;4.52;67.62;100953.75;107449;1254;113955;-62
2023/03/16 07:49:16;;;;;;;;;;;;;;;4.52;67.87;100956.37;107454;1254;109122;-61
2023/03/16 07:51:45;;;;;;;;;;;;;;;4.58;67.75;100962.14;107399;1254;107429;-63
2023/03/16 07:54:13;;;;;;;;;;;;;;;4.52;67.61;100962.07;107419;1254;99201;-61
2023/03/16 07:56:42;;;;;;;;;;;;;;;4.55;67.49;100968.84;107483;1254;99173;-61
2023/03/16 07:59:26;;;;;;;;;;;;;;;4.56;67.37;100969.48;107484;1254;113123;-61
2023/03/16 08:01:54;;;;;;;;;;;;;;;4.57;67.17;100968.38;107471;1254;109633;-62
2023/03/16 08:04:23;;;;;;;;;;;;;;;4.52;67.34;100971.88;107447;1254;108089;-62
2023/03/16 08:06:58;;;;;;;;;;;;;;;4.50;67.27;100974.43;107432;1254;99250;-61
2023/03/16 08:09:30;;;;;;;;;;;;;;;4.46;66.97;100977.38;107493;1254;99233;-62
2023/03/16 08:11:59;;;;;;;;;;;;;;;4.37;67.27;100980.70;107515;1254;112704;-61
2023/03/16 08:14:27;;;;;;;;;;;;;;;4.30;67.08;100974.23;107523;1254;109947;-62
2023/03/16 08:17:11;;;;;;;;;;;;;;;4.31;67.32;100976.15;107485;1254;108144;-61
2023/03/16 08:19:41;;;;;;;;;;;;;;;4.35;66.90;100976.03;107423;1254;99253;-62
2023/03/16 08:22:11;;;;;;;;;;;;;;;4.41;66.78;100977.86;107518;1254;99161;-61
2023/03/16 08:24:42;;;;;;;;;;;;;;;4.49;66.95;100976.31;107428;1254;113613;-61
2023/03/16 08:27:12;;;;;;;;;;;;;;;4.52;66.73;100981.09;107499;1253;109548;-62
2023/03/16 08:29:42;;;;;;;;;;;;;;;4.53;66.34;100986.03;107426;1254;107762;-61
2023/03/16 08:32:13;;;;;;;;;;;;;;;4.45;66.29;100984.02;107436;1257;99278;-60
2023/03/16 08:34:44;;;;;;;;;;;;;;;4.45;66.38;100983.45;107453;1254;99183;-59
2023/03/16 08:37:13;;;;;;;;;;;;;;;4.48;66.28;100985.58;107416;1254;112529;-61
2023/03/16 08:39:42;;;;;;;;;;;;;;;4.51;66.23;100991.27;107433;1253;109062;-61
2023/03/16 08:42:14;;;;;;;;;;;;;;;4.52;66.20;100990.66;107360;1253;107707;-59
2023/03/16 08:44:48;;;;;;;;;;;;;;;4.57;66.17;100987.76;107427;1254;99256;-61
2023/03/16 08:47:16;;;;;;;;;;;;;;;4.61;66.08;100988.03;107413;1254;99052;-63
2023/03/16 08:49:45;;;;;;;;;;;;;;;4.68;65.93;100997.02;107448;1254;111706;-60
2023/03/16 08:52:15;;;;;;;;;;;;;;;4.67;65.48;100998.88;107467;1254;108966;-62
2023/03/16 08:54:44;;;;;;;;;;;;;;;4.65;65.63;101000.20;107476;1253;108284;-60
2023/03/16 08:57:30;;;;;;;;;;;;;;;4.67;65.62;101002.21;107412;1254;99285;-60
2023/03/16 08:59:59;;;;;;;;;;;;;;;4.62;65.48;101000.95;107460;1254;99291;-61
2023/03/16 09:02:27;;;;;;;;;;;;;;;4.58;65.63;100996.56;107439;1254;113202;-61
2023/03/16 09:04:56;;;;;;;;;;;;;;;4.58;65.57;100996.77;107466;1254;108948;-63
2023/03/16 09:07:24;;;;;;;;;;;;;;;4.57;65.58;101005.31;107422;1254;107717;-62
2023/03/16 09:09:53;;;;;;;;;;;;;;;4.54;65.40;101000.15;107436;1254;99244;-61
2023/03/16 09:12:22;;;;;;;;;;;;;;;4.57;65.72;101004.09;107459;1254;99063;-61
2023/03/16 09:14:50;;;;;;;;;;;;;;;4.56;65.72;101004.52;107475;1254;113737;-61
2023/03/16 09:17:19;;;;;;;;;;;;;;;4.56;65.72;101006.08;107471;1253;111083;-61
2023/03/16 09:19:48;;;;;;;;;;;;;;;4.61;65.68;101009.73;107434;1254;108101;-62
2023/03/16 09:22:21;;;;;;;;;;;;;;;4.66;65.70;101014.52;107432;1254;99157;-62
2023/03/16 09:24:50;;;;;;;;;;;;;;;4.73;65.57;101010.06;107486;1254;99080;-62
2023/03/16 09:27:19;;;;;;;;;;;;;;;4.75;65.24;101018.13;107473;1254;112873;-60
2023/03/16 09:29:49;;;;;;;;;;;;;;;4.73;65.09;101020.37;107469;1254;110017;-62
2023/03/16 09:32:17;;;;;;;;;;;;;;;4.76;65.15;101018.60;107484;1254;107826;-62
2023/03/16 09:34:46;;;;;;;;;;;;;;;4.77;64.94;101022.77;107428;1253;99170;-63
2023/03/16 09:37:15;;;;;;;;;;;;;;;4.77;64.94;101035.21;107455;1254;99163;-61
2023/03/16 09:39:44;;;;;;;;;;;;;;;4.77;64.88;101032.91;107494;1254;112974;-62
2023/03/16 09:42:16;;;;;;;;;;;;;;;4.82;64.91;101034.41;107498;1253;109516;-62
2023/03/16 09:44:54;;;;;;;;;;;;;;;4.82;64.50;101037.77;107497;1257;109514;-60
2023/03/16 09:47:28;;;;;;;;;;;;;;;4.82;64.62;101042.94;107458;1257;99112;-60
2023/03/16 09:49:58;;;;;;;;;;;;;;;4.86;64.46;101043.52;107473;1257;99179;-61
2023/03/16 09:52:32;;;;;;;;;;;;;;;4.92;64.37;101045.73;107482;1257;114851;-61
2023/03/16 09:55:01;;;;;;;;;;;;;;;4.97;64.39;101044.69;106739;1254;109641;-61
2023/03/16 09:57:34;;;;;;;;;;;;;;;4.99;64.02;101042.41;107434;1253;108279;-61
2023/03/16 10:00:13;;;;;;;;;;;;;;;5.00;63.81;101045.41;107514;1253;99606;-61
2023/03/16 10:02:44;;;;;;;;;;;;;;;4.96;63.93;101051.51;107497;1254;99167;-61
2023/03/16 10:05:15;;;;;;;;;;;;;;;4.92;63.80;101053.73;107473;1253;113787;-65
2023/03/16 10:07:44;;;;;;;;;;;;;;;4.94;63.71;101057.86;107462;1254;109194;-60
2023/03/16 10:10:13;;;;;;;;;;;;;;;4.96;63.82;101056.32;107462;1257;108178;-62
2023/03/16 10:12:44;;;;;;;;;;;;;;;4.94;63.86;101060.36;107536;1254;99226;-61
2023/03/16 10:15:15;;;;;;;;;;;;;;;4.97;63.90;101062.29;107535;1253;99939;-61
2023/03/16 10:18:05;;;;;;;;;;;;;;;5.02;64.05;101068.75;107440;1253;113552;-61
2023/03/16 10:20:33;;;;;;;;;;;;;;;5.04;64.11;101068.84;107474;1253;109894;-60
2023/03/16 10:23:12;;;;;;;;;;;;;;;5.00;63.77;101077.17;107437;1257;108492;-62
2023/03/16 10:25:41;;;;;;;;;;;;;;;5.00;63.76;101077.35;107422;1257;99303;-62
2023/03/16 10:28:14;;;;;;;;;;;;;;;5.01;63.84;101080.48;107438;1258;99205;-62
2023/03/16 10:30:43;;;;;;;;;;;;;;;5.03;64.14;101078.84;107413;1254;113255;-62
2023/03/16 10:33:25;;;;;;;;;;;;;;;5.03;64.05;101077.60;107422;1254;109946;-61
2023/03/16 10:35:56;;;;;;;;;;;;;;;5.05;64.14;101075.86;107467;1254;108866;-61
2023/03/16 10:38:41;;;;;;;;;;;;;;;5.10;64.20;101079.50;107429;1254;99189;-61
2023/03/16 10:41:30;;;;;;;;;;;;;;;5.12;64.11;101081.13;107476;1254;99138;-61
2023/03/16 10:44:08;;;;;;;;;;;;;;;5.13;64.11;101086.58;107431;1254;113668;-61
2023/03/16 10:46:38;;;;;;;;;;;;;;;5.09;64.08;101078.11;107472;1254;110034;-61
2023/03/16 10:49:27;;;;;;;;;;;;;;;5.09;64.10;101080.40;107422;1254;108100;-60
2023/03/16 10:51:58;;;;;;;;;;;;;;;5.14;64.30;101081.38;107465;1254;99068;-61
2023/03/16 10:54:34;;;;;;;;;;;;;;;5.16;64.15;101077.67;107487;1254;99064;-62
2023/03/16 10:57:35;;;;;;;;;;;;;;;5.17;64.48;101075.65;107485;1254;114398;-61
2023/03/16 11:00:13;;;;;;;;;;;;;;;5.19;64.41;101068.64;107346;1254;109538;-61
2023/03/16 11:02:42;;;;;;;;;;;;;;;5.19;64.29;101061.51;107433;1254;107609;-61
2023/03/16 11:05:12;;;;;;;;;;;;;;;5.18;64.42;101068.82;107451;1254;99212;-61
2023/03/16 11:07:48;;;;;;;;;;;;;;;5.14;64.41;101069.43;107443;1254;99150;-61
2023/03/16 11:10:23;;;;;;;;;;;;;;;5.16;64.63;101069.30;107466;1257;113154;-61
2023/03/16 11:12:52;;;;;;;;;;;;;;;5.22;64.53;101067.73;107371;1255;109728;-62
2023/03/16 11:15:21;;;;;;;;;;;;;;;5.24;64.48;101065.08;107488;1254;106879;-61
2023/03/16 11:17:53;;;;;;;;;;;;;;;5.28;64.53;101059.70;107430;1254;99272;-61
2023/03/16 11:20:30;;;;;;;;;;;;;;;5.34;64.44;101058.44;107439;1254;99159;-59
2023/03/16 11:22:59;;;;;;;;;;;;;;;5.39;64.19;101057.09;107503;1254;113554;-62
2023/03/16 11:25:30;;;;;;;;;;;;;;;5.42;64.20;101063.10;107473;1254;109492;-63
2023/03/16 11:28:10;;;;;;;;;;;;;;;5.43;63.80;101059.30;107385;1254;108177;-61
2023/03/16 11:30:42;;;;;;;;;;;;;;;5.45;63.76;101058.31;107412;1254;99368;-62
2023/03/16 11:33:12;;;;;;;;;;;;;;;5.44;63.51;101062.42;107474;1254;99198;-60
2023/03/16 11:35:44;;;;;;;;;;;;;;;5.45;63.55;101066.84;107431;1254;112093;-62
2023/03/16 11:38:25;;;;;;;;;;;;;;;5.49;63.56;101066.75;107443;1254;109734;-61
2023/03/16 11:41:22;;;;;;;;;;;;;;;5.55;63.79;101062.14;107471;1257;108008;-61
2023/03/16 11:44:03;;;;;;;;;;;;;;;5.55;63.70;101068.20;107467;1254;99061;-60
2023/03/16 11:46:40;;;;;;;;;;;;;;;5.57;63.84;101063.79;107442;1254;99198;-62
2023/03/16 11:49:12;;;;;;;;;;;;;;;5.59;63.94;101069.36;107505;1254;112459;-61
2023/03/16 11:52:10;;;;;;;;;;;;;;;5.59;64.17;101067.54;107474;1254;109077;-61
2023/03/16 11:54:50;;;;;;;;;;;;;;;5.61;64.10;101069.00;107309;1254;108229;-62
2023/03/16 11:57:19;;;;;;;;;;;;;;;5.68;64.28;101067.92;107448;1257;99199;-62
2023/03/16 12:00:06;;;;;;;;;;;;;;;5.75;64.29;101068.50;107493;1254;99166;-62
2023/03/16 12:02:34;;;;;;;;;;;;;;;5.76;63.39;101064.88;107471;1254;112899;-61
2023/03/16 12:05:13;;;;;;;;;;;;;;;5.78;63.18;101066.39;107540;1254;110032;-62
2023/03/16 12:07:41;;;;;;;;;;;;;;;5.74;62.48;101061.11;107433;1254;108354;-61
2023/03/16 12:10:33;;;;;;;;;;;;;;;5.72;61.97;101069.46;107507;1254;99928;-61
2023/03/16 12:13:21;;;;;;;;;;;;;;;5.67;61.92;101067.96;107453;1254;99297;-62
2023/03/16 12:15:53;;;;;;;;;;;;;;;5.69;61.96;101063.94;107478;1254;113160;-62
2023/03/16 12:18:30;;;;;;;;;;;;;;;5.72;61.88;101067.84;107367;1254;108831;-62
2023/03/16 12:21:05;;;;;;;;;;;;;;;5.74;61.97;101072.12;107503;1254;108498;-61
2023/03/16 12:23:48;;;;;;;;;;;;;;;5.69;62.42;101082.11;107471;1254;99250;-60
2023/03/16 12:26:18;;;;;;;;;;;;;;;5.58;62.79;101080.08;107523;1254;99164;-61
2023/03/16 12:28:47;;;;;;;;;;;;;;;5.57;63.12;101077.81;107418;1254;112078;-61
2023/03/16 12:31:26;;;;;;;;;;;;;;;5.59;63.21;101081.10;107498;1254;109057;-60
2023/03/16 12:34:03;;;;;;;;;;;;;;;5.57;63.11;101079.94;107486;1254;108735;-61
2023/03/16 12:36:37;;;;;;;;;;;;;;;5.58;62.94;101080.95;107526;1257;99164;-60
2023/03/16 12:39:26;;;;;;;;;;;;;;;5.68;63.06;101077.88;107365;1254;99287;-60
2023/03/16 12:42:19;;;;;;;;;;;;;;;5.78;62.92;101077.93;107090;1254;113449;-61
2023/03/16 12:45:01;;;;;;;;;;;;;;;5.83;62.75;101076.77;107382;1257;109826;-62
2023/03/16 12:47:45;;;;;;;;;;;;;;;5.84;61.79;101079.71;107423;1254;108573;-62
2023/03/16 12:50:15;;;;;;;;;;;;;;;5.84;61.52;101080.96;107412;1254;99282;-60
2023/03/16 12:52:48;;;;;;;;;;;;;;;5.83;61.48;101083.91;107443;1254;99260;-61
2023/03/16 12:55:18;;;;;;;;;;;;;;;5.83;61.48;101091.37;107442;1257;113063;-62